EKHG weather

Herning Airport
Herning, Central Jutland, Denmark

Public forecast

Using degrees Celsius for public forecast. Weather courtesy of forecast.io.

METAR (pilot weather report)

Closest report is Karup Airport, 7.3 nm (13.5 km) NNE. Retrieved 2019/05/19 14:20 UTC (26 minutes ago):

EKKA 191420Z AUTO 10012KT 9999 NCD 21/14 Q1009

TAF (pilot weather forecast)

Closest forecast is Karup Airport, 7.3 nm (13.5 km) NNE. Retrieved 2019/05/19 15:31 UTC (0 seconds ago):

TAF EKKA 191422Z 1915/2015 06008KT 9999 FEW020 TEMPO 1921/2006 3000 BR MIFG